Strona główna
METAR-TAF:

METAR-TAF

Lotnisko :

Madison, Indiana, Stany Zjednoczone

Szerokość geograficzna: 38-45-36N, Długość geograficzna: 085-27-53W, wysokość: 250 m

Aktualna obserwacja pogody

Raport powstał 35 minut temu, godzina 22:15 UTC
Wiatr 5 kt od zachodnio-południowy zachód
Temperatura -2°C
Wilgotność 54%
Ciśnienie 1026 hPa
Widzialność: 16.1 km
bezchmurnie

METAR: KIMS 102215Z AUTO 25005KT 10SM CLR M02/M10 A3030 RMK AO1

czas: 17:50 (22:50 UTC)


TAF: brakujący

Obserwacja i prognoza pogody dla ponad 4000 lotnisk (raport METAR i TAF).

Dostępne stacje oznaczono żółtymi i czerwonymi punktami na mapie.

Najedź kursorem aby zobaczyć nazwę stacji.

Kliknij aby zobaczyć obserwacje i prognozy pogody.

Aby zmienić mapę: kliknij na zielony przycisk z czarnym krzyżykiem, aby powiększyć; na zielony przycisk z myślnikiem, aby pomniejszyć; na zielone strzałki, aby przejść do map sąsiednich.


METAR-TAF: